Time;durP1;ratioP1;P1;durP2;ratioP2;P2;SDS_P1;SDS_P2;PMS_P1;PMS_P2;Temp;Humidity;BMP_temperature;BMP_pressure;BME280_temperature;BME280_humidity;BME280_pressure;Samples;Min_cycle;Max_cycle;Signal;HPM_P1;HPM_P2
2022/03/01 00:00:45;;;;;;;11.60;9.70;;;2.60;99.90;;;;;;5040269;28;20083;-60
2022/03/01 00:03:10;;;;;;;14.95;9.88;;;2.50;99.90;;;;;;5038487;28;20045;-60
2022/03/01 00:05:36;;;;;;;11.27;8.65;;;2.40;99.90;;;;;;5038691;28;20036;-60
2022/03/01 00:08:01;;;;;;;10.27;7.45;;;2.40;99.90;;;;;;5034231;28;20219;-60
2022/03/01 00:10:30;;;;;;;10.35;8.15;;;2.40;99.90;;;;;;5042456;28;20045;-60
2022/03/01 00:12:55;;;;;;;13.13;8.10;;;2.40;99.90;;;;;;5047690;28;20044;-59
2022/03/01 00:15:21;;;;;;;13.68;9.18;;;2.40;99.90;;;;;;5045598;28;20045;-59
2022/03/01 00:17:46;;;;;;;14.05;8.43;;;2.30;99.90;;;;;;5046305;28;20047;-60
2022/03/01 00:20:12;;;;;;;15.38;9.07;;;2.30;99.90;;;;;;5045143;28;20050;-59
2022/03/01 00:22:38;;;;;;;14.10;8.93;;;2.20;99.90;;;;;;5046541;28;20103;-60
2022/03/01 00:25:04;;;;;;;13.55;9.05;;;2.20;99.90;;;;;;5052416;28;20051;-61
2022/03/01 00:27:30;;;;;;;11.93;7.50;;;2.10;99.90;;;;;;5024279;28;20133;-62
2022/03/01 00:29:56;;;;;;;10.95;7.00;;;2.20;99.90;;;;;;5026991;28;20052;-60
2022/03/01 00:32:21;;;;;;;11.80;7.70;;;2.20;99.90;;;;;;5043638;28;20159;-60
2022/03/01 00:34:47;;;;;;;13.35;8.75;;;2.30;99.90;;;;;;5051215;28;20044;-60
2022/03/01 00:37:12;;;;;;;10.75;7.53;;;2.20;99.90;;;;;;5029217;28;20044;-60
2022/03/01 00:39:38;;;;;;;17.67;9.00;;;2.20;99.90;;;;;;5048342;28;20236;-59
2022/03/01 00:42:04;;;;;;;13.27;8.60;;;2.10;99.90;;;;;;5050389;28;20151;-59
2022/03/01 00:44:30;;;;;;;14.20;10.02;;;2.20;99.90;;;;;;5049681;28;20044;-61
2022/03/01 00:46:56;;;;;;;17.30;10.35;;;2.00;99.90;;;;;;5048572;28;20290;-59
2022/03/01 00:49:21;;;;;;;11.55;8.73;;;2.00;99.90;;;;;;5045216;28;20045;-61
2022/03/01 00:51:47;;;;;;;11.00;9.13;;;2.00;99.90;;;;;;5045835;28;20045;-59
2022/03/01 00:54:13;;;;;;;14.15;8.73;;;1.90;99.90;;;;;;5029683;28;20041;-61
2022/03/01 00:56:38;;;;;;;10.45;8.68;;;1.90;99.90;;;;;;5024381;28;20503;-62
2022/03/01 00:59:04;;;;;;;13.65;9.90;;;1.90;99.90;;;;;;5047486;28;20049;-61
2022/03/01 01:01:29;;;;;;;11.13;7.22;;;2.00;99.90;;;;;;5043539;28;20512;-61
2022/03/01 01:03:55;;;;;;;12.02;7.32;;;2.00;99.90;;;;;;5044496;28;20040;-60
2022/03/01 01:06:20;;;;;;;14.15;10.20;;;2.00;99.90;;;;;;5022355;28;20099;-59
2022/03/01 01:08:46;;;;;;;12.07;10.15;;;2.10;99.90;;;;;;5028130;28;20125;-60
2022/03/01 01:11:11;;;;;;;14.02;9.60;;;1.90;99.90;;;;;;5043897;28;20825;-59
2022/03/01 01:13:37;;;;;;;11.55;8.65;;;1.80;99.90;;;;;;5056307;28;20139;-59
2022/03/01 01:16:03;;;;;;;13.77;8.60;;;1.80;99.90;;;;;;5058173;28;20151;-59
2022/03/01 01:18:29;;;;;;;13.77;9.02;;;1.70;99.90;;;;;;5057862;28;20123;-59
2022/03/01 01:20:55;;;;;;;12.68;7.65;;;1.70;99.90;;;;;;5039993;28;20126;-59
2022/03/01 01:23:20;;;;;;;11.27;6.68;;;1.80;99.90;;;;;;5039178;28;20045;-59
2022/03/01 01:25:46;;;;;;;15.68;9.32;;;1.80;99.90;;;;;;5058901;28;20048;-59
2022/03/01 01:28:12;;;;;;;14.75;9.43;;;1.70;99.90;;;;;;5057247;28;20075;-60
2022/03/01 01:30:38;;;;;;;9.85;7.72;;;1.60;99.90;;;;;;5058276;28;20060;-59
2022/03/01 01:33:04;;;;;;;11.52;9.07;;;1.50;99.90;;;;;;5058196;28;20051;-60
2022/03/01 01:35:31;;;;;;;9.90;7.78;;;1.60;99.90;;;;;;5058358;28;20098;-59
2022/03/01 01:37:58;;;;;;;11.73;8.38;;;1.60;99.90;;;;;;5052559;28;20139;-59
2022/03/01 01:40:26;;;;;;;11.43;7.20;;;1.50;99.90;;;;;;5059315;28;20045;-60
2022/03/01 01:42:52;;;;;;;15.63;10.27;;;1.50;99.90;;;;;;5058728;28;20591;-60
2022/03/01 01:45:20;;;;;;;14.73;9.65;;;1.60;99.90;;;;;;5059330;28;20049;-59
2022/03/01 01:47:47;;;;;;;12.82;8.48;;;1.60;99.90;;;;;;5059156;28;20494;-59
2022/03/01 01:50:13;;;;;;;10.70;7.10;;;1.50;99.90;;;;;;5058942;28;20095;-59
2022/03/01 01:52:39;;;;;;;14.18;9.65;;;1.60;99.90;;;;;;5058713;28;20244;-59
2022/03/01 01:55:05;;;;;;;10.52;7.00;;;1.60;99.90;;;;;;5058702;28;20114;-60
2022/03/01 01:57:30;;;;;;;11.93;7.65;;;1.60;99.90;;;;;;5058470;28;20048;-59
2022/03/01 02:00:16;;;;;;;12.27;9.55;;;1.70;99.90;;;;;;5040816;28;20924;-61
2022/03/01 02:02:43;;;;;;;12.82;7.53;;;1.70;99.90;;;;;;5042698;28;20593;-61
2022/03/01 02:05:10;;;;;;;9.85;7.22;;;1.80;99.90;;;;;;5058010;28;20484;-61
2022/03/01 02:07:36;;;;;;;9.00;6.65;;;1.80;99.90;;;;;;5030946;28;20404;-61
2022/03/01 02:10:04;;;;;;;11.18;7.28;;;1.80;99.90;;;;;;5058291;28;20052;-61
2022/03/01 02:12:30;;;;;;;9.52;7.18;;;1.90;99.90;;;;;;5059587;28;20044;-61
2022/03/01 02:14:55;;;;;;;14.27;7.50;;;1.80;99.90;;;;;;5059899;28;20459;-61
2022/03/01 02:17:21;;;;;;;15.00;8.38;;;1.90;99.90;;;;;;5058542;28;20040;-61
2022/03/01 02:19:51;;;;;;;9.77;7.95;;;1.90;99.90;;;;;;5059226;28;20049;-61
2022/03/01 02:22:18;;;;;;;14.40;7.70;;;1.90;99.90;;;;;;5041018;28;20478;-61
2022/03/01 02:24:44;;;;;;;14.55;8.65;;;1.90;99.90;;;;;;5058636;28;20040;-61
2022/03/01 02:27:10;;;;;;;11.18;7.60;;;1.90;99.90;;;;;;5058869;28;20080;-61
2022/03/01 02:29:36;;;;;;;12.10;8.10;;;2.00;99.90;;;;;;5059123;28;20151;-58
2022/03/01 02:32:07;;;;;;;8.85;7.03;;;3.10;99.90;;;;;;5040061;28;20172;-61
2022/03/01 02:34:34;;;;;;;11.75;8.45;;;2.00;99.90;;;;;;5058797;28;20229;-61
2022/03/01 02:36:59;;;;;;;13.57;9.13;;;2.00;99.90;;;;;;5040915;28;20048;-61
2022/03/01 02:39:25;;;;;;;11.52;7.97;;;2.00;99.90;;;;;;5058139;28;20047;-61
2022/03/01 02:41:51;;;;;;;13.45;8.18;;;2.00;99.90;;;;;;5058139;28;20086;-61
2022/03/01 02:44:17;;;;;;;11.55;8.18;;;2.00;99.90;;;;;;5059140;28;20044;-61
2022/03/01 02:46:43;;;;;;;12.55;7.93;;;2.00;99.90;;;;;;5039720;28;20057;-61
2022/03/01 02:49:09;;;;;;;11.65;7.97;;;2.00;99.90;;;;;;5058064;28;20063;-61
2022/03/01 02:51:36;;;;;;;12.80;7.55;;;1.90;99.90;;;;;;5058212;28;20083;-61
2022/03/01 02:54:02;;;;;;;13.10;7.97;;;1.90;99.90;;;;;;5057354;28;20060;-61
2022/03/01 02:56:28;;;;;;;11.68;7.85;;;1.90;99.90;;;;;;5039986;28;20057;-61
2022/03/01 02:58:55;;;;;;;14.48;9.57;;;1.90;99.90;;;;;;5057894;28;20182;-61
2022/03/01 03:01:22;;;;;;;11.13;6.88;;;1.90;99.90;;;;;;5057936;28;20061;-61
2022/03/01 03:03:49;;;;;;;14.10;9.00;;;1.90;99.90;;;;;;5058427;28;20056;-61
2022/03/01 03:06:15;;;;;;;13.80;8.38;;;1.90;99.90;;;;;;5050872;28;20051;-61
2022/03/01 03:08:41;;;;;;;12.80;7.70;;;1.80;99.90;;;;;;5050253;28;20048;-60
2022/03/01 03:11:07;;;;;;;11.02;8.15;;;1.80;99.90;;;;;;5057448;28;20056;-60
2022/03/01 03:13:33;;;;;;;12.55;8.60;;;1.90;99.90;;;;;;5035737;28;20904;-60
2022/03/01 03:15:59;;;;;;;14.23;8.32;;;1.80;99.90;;;;;;5034007;28;20056;-60
2022/03/01 03:18:24;;;;;;;10.85;8.27;;;1.80;99.90;;;;;;5057701;28;20044;-60
2022/03/01 03:20:50;;;;;;;20.40;10.23;;;1.80;99.90;;;;;;5057149;28;20044;-61
2022/03/01 03:23:15;;;;;;;12.65;8.15;;;1.80;99.90;;;;;;5057674;28;20040;-60
2022/03/01 03:25:41;;;;;;;12.07;7.63;;;1.70;99.90;;;;;;5057501;28;20149;-60
2022/03/01 03:28:06;;;;;;;13.30;7.32;;;1.70;99.90;;;;;;5057306;28;20072;-60
2022/03/01 03:30:32;;;;;;;13.00;8.25;;;1.70;99.90;;;;;;5057638;28;20064;-60
2022/03/01 03:32:58;;;;;;;14.93;8.35;;;1.70;99.90;;;;;;5050794;28;20053;-60
2022/03/01 03:35:24;;;;;;;16.38;8.73;;;1.80;99.90;;;;;;5031687;28;20412;-60
2022/03/01 03:37:49;;;;;;;13.10;8.00;;;1.90;99.90;;;;;;5057419;28;20040;-60
2022/03/01 03:40:15;;;;;;;17.98;8.77;;;1.90;99.90;;;;;;5057083;28;20135;-60
2022/03/01 03:42:45;;;;;;;19.52;10.40;;;1.80;99.90;;;;;;5056467;28;20040;-60
2022/03/01 03:45:12;;;;;;;11.15;8.10;;;1.80;99.90;;;;;;5035530;28;20056;-60
2022/03/01 03:47:38;;;;;;;13.30;8.82;;;1.70;99.90;;;;;;5019293;28;20057;-60
2022/03/01 03:50:05;;;;;;;13.13;7.82;;;1.70;99.90;;;;;;5038665;28;20110;-60
2022/03/01 03:52:31;;;;;;;17.58;11.13;;;1.70;99.90;;;;;;5056654;28;20055;-60
2022/03/01 03:54:56;;;;;;;11.85;6.93;;;1.80;99.90;;;;;;5057326;28;20044;-60
2022/03/01 03:57:22;;;;;;;11.13;8.45;;;1.90;99.90;;;;;;5038626;28;20597;-60
2022/03/01 03:59:47;;;;;;;11.93;7.90;;;2.00;99.90;;;;;;5057596;28;20052;-60
2022/03/01 04:02:13;;;;;;;15.10;8.18;;;2.00;99.90;;;;;;5057191;28;20037;-60
2022/03/01 04:04:38;;;;;;;12.25;9.02;;;2.00;99.90;;;;;;5057012;28;20060;-60
2022/03/01 04:07:04;;;;;;;14.23;10.60;;;2.10;99.90;;;;;;5056998;28;20055;-60
2022/03/01 04:09:30;;;;;;;13.23;8.48;;;2.00;99.90;;;;;;5056668;28;20044;-60
2022/03/01 04:11:56;;;;;;;14.45;9.57;;;2.10;99.90;;;;;;5057437;28;20099;-60
2022/03/01 04:14:21;;;;;;;13.07;8.48;;;2.00;99.90;;;;;;5056785;28;20696;-60
2022/03/01 04:16:47;;;;;;;12.75;8.80;;;2.00;99.90;;;;;;5038115;28;20634;-60
2022/03/01 04:19:12;;;;;;;11.75;8.07;;;2.00;99.90;;;;;;5056851;28;20048;-60
2022/03/01 04:21:39;;;;;;;12.68;9.23;;;1.90;99.90;;;;;;5057117;28;20941;-60
2022/03/01 04:24:06;;;;;;;14.07;10.13;;;2.00;99.90;;;;;;5056408;28;20049;-60
2022/03/01 04:26:32;;;;;;;14.57;10.65;;;1.90;99.90;;;;;;5056877;28;20056;-60
2022/03/01 04:28:58;;;;;;;17.63;10.35;;;2.10;99.90;;;;;;5039456;28;20158;-61
2022/03/01 04:31:24;;;;;;;13.75;9.10;;;1.90;99.90;;;;;;5056111;28;20492;-60
2022/03/01 04:33:50;;;;;;;12.35;9.63;;;1.90;99.90;;;;;;5056792;28;20535;-61
2022/03/01 04:36:16;;;;;;;11.32;7.47;;;2.00;99.90;;;;;;5056718;28;20045;-60
2022/03/01 04:38:41;;;;;;;13.85;9.25;;;2.10;99.90;;;;;;5056229;28;20393;-60
2022/03/01 04:41:07;;;;;;;13.32;8.95;;;2.20;99.90;;;;;;5056981;28;20064;-60
2022/03/01 04:43:33;;;;;;;14.07;8.52;;;2.30;99.90;;;;;;5057301;28;20893;-60
2022/03/01 04:45:59;;;;;;;11.05;8.00;;;2.30;99.90;;;;;;5039249;28;20056;-60
2022/03/01 04:48:25;;;;;;;11.65;9.15;;;2.40;99.90;;;;;;5057432;28;20060;-60
2022/03/01 04:50:51;;;;;;;14.88;9.73;;;2.50;99.90;;;;;;5057440;28;20924;-60
2022/03/01 04:53:17;;;;;;;14.68;9.10;;;3.50;99.90;;;;;;5054844;28;20036;-60
2022/03/01 04:55:43;;;;;;;16.25;9.65;;;2.50;99.90;;;;;;5056550;28;20852;-60
2022/03/01 04:58:09;;;;;;;15.93;9.45;;;2.60;99.90;;;;;;5056672;28;20135;-60
2022/03/01 05:00:35;;;;;;;15.20;8.98;;;2.60;99.90;;;;;;5056212;28;20048;-60
2022/03/01 05:03:00;;;;;;;14.80;9.48;;;2.70;99.90;;;;;;5057251;28;20131;-59
2022/03/01 05:05:26;;;;;;;12.80;7.90;;;2.70;99.90;;;;;;5058947;28;20076;-60
2022/03/01 05:07:52;;;;;;;12.40;7.82;;;2.70;99.90;;;;;;5060103;28;20052;-60
2022/03/01 05:10:18;;;;;;;12.48;9.43;;;2.80;99.90;;;;;;5042261;28;20786;-60
2022/03/01 05:12:46;;;;;;;12.07;9.05;;;2.80;99.90;;;;;;5037691;28;20049;-60
2022/03/01 05:15:12;;;;;;;10.70;8.48;;;2.90;99.90;;;;;;5047082;28;20052;-61
2022/03/01 05:17:38;;;;;;;17.00;9.57;;;2.90;99.90;;;;;;5038489;28;20049;-61
2022/03/01 05:20:06;;;;;;;15.02;8.45;;;3.00;99.90;;;;;;5039036;28;20068;-60
2022/03/01 05:22:32;;;;;;;12.57;8.75;;;3.00;99.90;;;;;;5039997;28;20049;-61
2022/03/01 05:24:57;;;;;;;14.52;9.20;;;3.00;99.90;;;;;;5039869;28;20576;-60
2022/03/01 05:27:23;;;;;;;15.55;10.02;;;3.10;99.90;;;;;;5039620;28;20053;-60
2022/03/01 05:29:48;;;;;;;10.73;8.63;;;3.10;99.90;;;;;;5038571;28;20049;-60
2022/03/01 05:32:14;;;;;;;13.35;9.20;;;3.00;99.90;;;;;;5057296;28;20501;-60
2022/03/01 05:34:39;;;;;;;13.77;8.40;;;3.10;99.90;;;;;;5041592;28;20897;-60
2022/03/01 05:37:05;;;;;;;14.00;9.15;;;3.20;99.90;;;;;;5060364;28;20064;-60
2022/03/01 05:39:31;;;;;;;11.48;8.27;;;3.20;99.90;;;;;;5059916;28;20152;-60
2022/03/01 05:41:56;;;;;;;14.63;10.10;;;3.20;99.90;;;;;;5059678;28;20076;-60
2022/03/01 05:44:22;;;;;;;15.32;9.10;;;3.20;99.90;;;;;;5042388;28;20048;-60
2022/03/01 05:46:47;;;;;;;12.98;9.00;;;3.30;99.90;;;;;;5059996;28;20121;-60
2022/03/01 05:49:13;;;;;;;11.98;8.43;;;3.30;99.90;;;;;;5059297;28;20881;-60
2022/03/01 05:51:39;;;;;;;14.73;9.50;;;3.30;99.90;;;;;;5042172;28;20059;-61
2022/03/01 05:54:05;;;;;;;16.88;9.48;;;3.30;99.90;;;;;;5041376;28;20110;-60
2022/03/01 05:56:30;;;;;;;16.92;9.52;;;3.30;99.90;;;;;;5058816;28;20044;-61
2022/03/01 05:58:56;;;;;;;15.50;10.57;;;3.30;99.90;;;;;;5059479;28;20467;-61
2022/03/01 06:01:22;;;;;;;12.50;8.32;;;3.30;99.90;;;;;;5059226;28;20114;-60
2022/03/01 06:03:48;;;;;;;10.65;8.40;;;3.30;99.90;;;;;;5058627;28;20051;-60
2022/03/01 06:06:13;;;;;;;13.85;8.70;;;3.40;99.90;;;;;;5042379;28;20048;-60
2022/03/01 06:08:39;;;;;;;15.43;9.13;;;3.30;99.90;;;;;;5041053;28;20114;-61
2022/03/01 06:11:05;;;;;;;12.90;7.70;;;3.30;99.90;;;;;;5059087;28;20787;-60
2022/03/01 06:13:30;;;;;;;14.32;9.25;;;3.30;99.90;;;;;;5058965;28;20438;-60
2022/03/01 06:15:58;;;;;;;16.60;9.40;;;3.30;99.90;;;;;;5036627;28;20098;-60
2022/03/01 06:18:24;;;;;;;13.43;9.27;;;3.30;99.90;;;;;;5037179;28;20475;-60
2022/03/01 06:20:49;;;;;;;12.00;8.20;;;3.30;99.90;;;;;;5059174;28;20049;-60
2022/03/01 06:23:15;;;;;;;16.17;9.90;;;3.30;99.90;;;;;;5058817;28;20052;-61
2022/03/01 06:25:43;;;;;;;13.45;9.60;;;3.30;99.90;;;;;;5059022;28;20057;-60
2022/03/01 06:28:09;;;;;;;14.60;9.02;;;3.30;99.90;;;;;;5059310;28;20048;-60
2022/03/01 06:30:36;;;;;;;15.05;9.75;;;3.20;99.90;;;;;;5058805;28;20068;-60
2022/03/01 06:33:02;;;;;;;15.68;9.75;;;3.00;99.90;;;;;;5038103;28;20090;-60
2022/03/01 06:35:27;;;;;;;13.88;10.15;;;2.70;99.90;;;;;;5056353;28;20048;-60
2022/03/01 06:37:53;;;;;;;19.85;11.68;;;2.40;99.90;;;;;;5056061;28;20544;-60
2022/03/01 06:40:19;;;;;;;17.92;10.68;;;3.40;99.90;;;;;;5056534;28;20049;-60
2022/03/01 06:42:47;;;;;;;16.77;11.85;;;2.00;99.90;;;;;;5051784;28;20712;-60
2022/03/01 06:45:12;;;;;;;14.93;10.32;;;2.00;99.90;;;;;;5037415;28;20060;-60
2022/03/01 06:47:38;;;;;;;16.17;10.32;;;2.00;99.90;;;;;;5055971;28;20117;-60
2022/03/01 06:50:05;;;;;;;17.77;11.75;;;2.00;99.90;;;;;;5037908;28;20086;-60
2022/03/01 06:52:32;;;;;;;12.93;8.82;;;2.00;99.90;;;;;;5055436;28;20063;-60
2022/03/01 06:54:58;;;;;;;16.08;10.25;;;2.10;99.90;;;;;;5043025;28;20068;-60
2022/03/01 06:57:24;;;;;;;14.90;9.55;;;2.10;99.90;;;;;;5016947;28;20140;-60
2022/03/01 06:59:53;;;;;;;14.40;10.02;;;2.10;99.90;;;;;;5037018;28;20487;-59
2022/03/01 07:02:18;;;;;;;19.10;11.23;;;2.20;99.90;;;;;;5045275;28;20435;-59
2022/03/01 07:04:44;;;;;;;15.48;10.10;;;2.20;99.90;;;;;;5050492;28;20494;-59
2022/03/01 07:07:10;;;;;;;15.93;10.93;;;2.30;99.90;;;;;;5043937;28;20047;-59
2022/03/01 07:09:35;;;;;;;16.50;11.95;;;2.30;99.90;;;;;;5022732;28;20131;-61
2022/03/01 07:12:01;;;;;;;17.27;10.98;;;2.30;99.90;;;;;;5049269;28;20121;-59
2022/03/01 07:14:27;;;;;;;17.63;11.68;;;2.20;99.90;;;;;;5042637;28;20258;-59
2022/03/01 07:16:52;;;;;;;15.60;11.63;;;2.30;99.90;;;;;;5048895;28;20041;-59
2022/03/01 07:19:18;;;;;;;19.95;10.88;;;2.30;99.90;;;;;;5043681;28;20258;-60
2022/03/01 07:21:44;;;;;;;15.63;10.82;;;2.30;99.90;;;;;;5042485;28;20037;-60
2022/03/01 07:24:09;;;;;;;13.18;9.73;;;2.40;99.90;;;;;;5040062;28;20100;-60
2022/03/01 07:26:35;;;;;;;18.95;11.10;;;2.50;99.90;;;;;;5047328;28;20083;-60
2022/03/01 07:29:00;;;;;;;12.20;10.00;;;2.60;99.90;;;;;;5046240;28;20044;-60
2022/03/01 07:31:26;;;;;;;14.57;10.32;;;2.80;99.90;;;;;;5035129;28;20060;-60
2022/03/01 07:33:52;;;;;;;16.30;9.82;;;2.90;99.90;;;;;;5035628;28;20041;-61
2022/03/01 07:36:17;;;;;;;13.32;9.98;;;2.90;99.90;;;;;;5035688;28;20053;-60
2022/03/01 07:38:43;;;;;;;16.95;11.13;;;3.10;99.90;;;;;;5034856;28;20806;-61
2022/03/01 07:41:08;;;;;;;16.30;11.38;;;3.30;99.90;;;;;;5017743;28;20149;-61
2022/03/01 07:43:34;;;;;;;12.73;10.18;;;3.40;99.90;;;;;;5054942;28;20045;-61
2022/03/01 07:45:59;;;;;;;17.08;10.35;;;3.60;99.90;;;;;;5055088;28;20074;-61
2022/03/01 07:48:25;;;;;;;14.30;9.98;;;3.70;99.90;;;;;;5054203;28;20404;-61
2022/03/01 07:50:50;;;;;;;14.85;9.63;;;3.90;99.90;;;;;;5030666;28;20092;-60
2022/03/01 07:53:16;;;;;;;17.83;11.23;;;4.10;99.90;;;;;;5044370;28;20044;-61
2022/03/01 07:55:42;;;;;;;18.30;10.98;;;4.20;99.90;;;;;;5041526;28;20127;-60
2022/03/01 07:58:08;;;;;;;17.00;10.60;;;4.30;99.90;;;;;;5050534;28;20048;-60
2022/03/01 08:00:34;;;;;;;15.38;9.48;;;4.50;99.90;;;;;;5042309;28;20564;-60
2022/03/01 08:02:59;;;;;;;19.27;10.02;;;4.60;99.90;;;;;;5053437;28;20141;-61
2022/03/01 08:05:25;;;;;;;17.10;10.13;;;4.60;99.90;;;;;;5036466;28;20049;-60
2022/03/01 08:07:52;;;;;;;12.43;9.60;;;4.70;99.90;;;;;;5037464;28;20789;-60
2022/03/01 08:10:18;;;;;;;11.80;9.93;;;4.70;99.90;;;;;;5055034;28;20504;-60
2022/03/01 08:12:44;;;;;;;14.25;10.50;;;4.80;99.90;;;;;;5055705;28;20045;-61
2022/03/01 08:15:10;;;;;;;15.02;10.32;;;4.90;99.90;;;;;;5048068;28;20111;-60
2022/03/01 08:17:36;;;;;;;14.82;9.65;;;4.90;99.90;;;;;;5041238;28;20052;-60
2022/03/01 08:20:02;;;;;;;12.50;9.48;;;5.00;99.90;;;;;;5048259;28;20112;-61
2022/03/01 08:22:28;;;;;;;13.20;9.95;;;5.10;99.90;;;;;;5047951;28;20048;-61
2022/03/01 08:24:53;;;;;;;16.33;11.02;;;5.10;99.90;;;;;;5023196;28;20793;-60
2022/03/01 08:27:19;;;;;;;17.98;10.75;;;5.10;99.90;;;;;;5039099;28;20057;-60
2022/03/01 08:29:44;;;;;;;14.63;10.13;;;5.20;99.90;;;;;;5041199;28;20032;-61
2022/03/01 08:32:10;;;;;;;16.20;9.32;;;5.20;99.90;;;;;;5021352;28;20049;-60
2022/03/01 08:34:36;;;;;;;14.07;9.57;;;5.30;99.90;;;;;;5045006;28;20045;-60
2022/03/01 08:37:01;;;;;;;15.77;10.43;;;5.40;99.90;;;;;;5032742;28;20047;-61
2022/03/01 08:39:27;;;;;;;16.00;9.60;;;5.50;99.90;;;;;;5046021;28;20051;-61
2022/03/01 08:41:55;;;;;;;16.05;9.95;;;5.60;99.90;;;;;;5051012;28;20092;-60
2022/03/01 08:44:21;;;;;;;16.90;11.18;;;5.60;99.90;;;;;;5027151;28;20044;-61
2022/03/01 08:46:46;;;;;;;18.77;10.90;;;5.70;99.90;;;;;;5051209;28;20044;-60
2022/03/01 08:49:12;;;;;;;16.38;10.75;;;5.70;99.90;;;;;;5038846;28;20048;-61
2022/03/01 08:51:37;;;;;;;13.75;9.38;;;5.80;99.90;;;;;;5038083;28;20048;-61
2022/03/01 08:54:03;;;;;;;13.13;9.75;;;5.90;99.90;;;;;;4707216;28;9999928;-61
2022/03/01 08:56:29;;;;;;;17.90;9.70;;;6.00;99.90;;;;;;5038576;28;20101;-61
2022/03/01 08:58:55;;;;;;;15.15;8.98;;;6.10;99.90;;;;;;5046560;28;20138;-61
2022/03/01 09:01:21;;;;;;;17.35;10.25;;;6.20;99.90;;;;;;5046298;28;20084;-61
2022/03/01 09:03:47;;;;;;;15.48;10.40;;;6.20;99.90;;;;;;5019346;28;20048;-61
2022/03/01 09:06:12;;;;;;;15.05;10.75;;;6.30;99.90;;;;;;5026626;28;20098;-60
2022/03/01 09:08:40;;;;;;;15.80;9.90;;;6.40;99.90;;;;;;5020796;28;20049;-61
2022/03/01 09:11:06;;;;;;;15.73;10.30;;;6.50;99.90;;;;;;5022591;28;20075;-61
2022/03/01 09:13:31;;;;;;;15.82;10.70;;;6.60;99.90;;;;;;5042390;28;20048;-61
2022/03/01 09:15:57;;;;;;;16.70;10.02;;;6.70;99.90;;;;;;5028418;28;20049;-61
2022/03/01 09:18:23;;;;;;;16.13;10.48;;;6.80;99.90;;;;;;5047372;28;20151;-61
2022/03/01 09:20:49;;;;;;;12.35;9.48;;;6.90;99.90;;;;;;5044569;28;20945;-61
2022/03/01 09:23:15;;;;;;;15.77;11.48;;;7.00;99.90;;;;;;5044767;28;20567;-61
2022/03/01 09:25:41;;;;;;;16.85;10.18;;;7.20;99.90;;;;;;5047232;28;20052;-61
2022/03/01 09:28:06;;;;;;;12.50;9.35;;;7.30;99.90;;;;;;5048183;28;20896;-61
2022/03/01 09:30:33;;;;;;;16.92;10.38;;;7.40;99.90;;;;;;5041824;28;20061;-61
2022/03/01 09:32:58;;;;;;;15.23;11.07;;;7.70;99.90;;;;;;5037295;28;20898;-61
2022/03/01 09:35:24;;;;;;;13.23;9.45;;;7.80;99.90;;;;;;5019536;28;20059;-61
2022/03/01 09:37:49;;;;;;;16.10;10.35;;;8.00;99.90;;;;;;5036242;28;20041;-61
2022/03/01 09:40:16;;;;;;;17.42;10.73;;;8.20;99.90;;;;;;5035235;28;20060;-61
2022/03/01 09:42:42;;;;;;;17.23;10.70;;;8.10;99.70;;;;;;5050026;28;20886;-61
2022/03/01 09:45:10;;;;;;;12.73;9.05;;;8.10;99.90;;;;;;5037394;28;20057;-61
2022/03/01 09:47:37;;;;;;;12.80;9.20;;;8.10;98.50;;;;;;5055876;28;20496;-61
2022/03/01 09:50:04;;;;;;;12.45;9.80;;;8.10;97.50;;;;;;5054120;28;20766;-61
2022/03/01 09:52:30;;;;;;;13.27;10.15;;;8.20;99.90;;;;;;5053605;28;20068;-61
2022/03/01 09:54:56;;;;;;;14.57;10.20;;;8.40;98.80;;;;;;5053751;28;20152;-61
2022/03/01 09:57:21;;;;;;;11.48;9.15;;;8.40;99.30;;;;;;5055833;28;20041;-61
2022/03/01 09:59:47;;;;;;;12.45;9.48;;;8.50;99.90;;;;;;5055328;28;20044;-61
2022/03/01 10:02:13;;;;;;;11.45;8.55;;;8.50;99.50;;;;;;5055072;28;20059;-61
2022/03/01 10:04:54;;;;;;;12.68;9.38;;;8.50;99.80;;;;;;5036635;28;20056;-61
2022/03/01 10:07:27;;;;;;;15.90;10.13;;;8.40;95.40;;;;;;5055751;28;20056;-61
2022/03/01 10:09:53;;;;;;;;;;;8.20;97.40;;;;;;5057115;28;20059;-61
2022/03/01 10:12:27;;;;;;;13.57;9.75;;;8.10;95.80;;;;;;5038780;28;19924;-61
2022/03/01 10:15:06;;;;;;;12.15;8.02;;;8.10;97.50;;;;;;5055727;28;20493;-61
2022/03/01 10:17:37;;;;;;;14.95;10.77;;;8.20;97.80;;;;;;5055714;28;20040;-61
2022/03/01 10:20:09;;;;;;;13.35;9.60;;;8.40;98.30;;;;;;5039323;28;20551;-61
2022/03/01 10:22:45;;;;;;;16.52;10.93;;;8.50;99.10;;;;;;5055995;28;20045;-62
2022/03/01 10:25:12;;;;;;;15.93;9.82;;;8.70;99.40;;;;;;5056384;28;20052;-61
2022/03/01 10:27:38;;;;;;;12.32;9.65;;;8.70;99.50;;;;;;5056950;28;20783;-59
2022/03/01 10:30:06;;;;;;;11.93;10.38;;;8.80;99.30;;;;;;5055059;28;20040;-60
2022/03/01 10:32:33;;;;;;;16.40;10.20;;;8.90;96.60;;;;;;5055644;28;20060;-60
2022/03/01 10:35:03;;;;;;;12.90;9.85;;;9.20;98.10;;;;;;5055560;28;20044;-61
2022/03/01 10:37:31;;;;;;;12.10;10.05;;;9.80;98.00;;;;;;5054522;28;20080;-61
2022/03/01 10:40:22;;;;;;;13.70;9.32;;;10.40;96.90;;;;;;5055210;28;20129;-60
2022/03/01 10:42:59;;;;;;;14.77;10.13;;;11.80;94.00;;;;;;5056340;28;20060;-61
2022/03/01 10:45:54;;;;;;;15.40;11.43;;;13.30;87.90;;;;;;5057076;28;20590;-60
2022/03/01 10:48:31;;;;;;;13.13;9.82;;;13.90;74.20;;;;;;5034938;28;20045;-61
2022/03/01 10:51:08;;;;;;;17.33;10.63;;;13.90;76.20;;;;;;5045489;28;20106;-62
2022/03/01 10:53:46;;;;;;;12.32;9.60;;;13.40;70.90;;;;;;5037966;28;20063;-61
2022/03/01 10:56:13;;;;;;;15.63;10.88;;;13.10;74.50;;;;;;5020868;28;20552;-61
2022/03/01 10:58:42;;;;;;;16.60;10.65;;;12.40;83.80;;;;;;5038205;28;20859;-61
2022/03/01 11:01:09;;;;;;;12.75;9.88;;;11.70;86.10;;;;;;5038406;28;20102;-61
2022/03/01 11:03:35;;;;;;;14.50;10.68;;;11.30;90.90;;;;;;5055847;28;20045;-60
2022/03/01 11:06:02;;;;;;;15.00;10.05;;;11.10;92.40;;;;;;5058390;28;20052;-60
2022/03/01 11:08:33;;;;;;;14.20;10.15;;;11.00;92.40;;;;;;5040624;28;20048;-61
2022/03/01 11:11:00;;;;;;;15.23;9.40;;;10.80;90.90;;;;;;5058823;28;20049;-60
2022/03/01 11:13:26;;;;;;;12.13;9.70;;;10.80;92.80;;;;;;5058024;28;20056;-60
2022/03/01 11:16:13;;;;;;;15.32;10.05;;;10.90;93.50;;;;;;5058439;28;20102;-60
2022/03/01 11:19:14;;;;;;;13.60;10.38;;;11.00;92.00;;;;;;5058197;28;20063;-60
2022/03/01 11:21:44;;;;;;;10.30;8.85;;;11.00;90.20;;;;;;5029978;28;20045;-60
2022/03/01 11:24:14;;;;;;;14.88;10.52;;;10.90;94.20;;;;;;5038778;28;20094;-60
2022/03/01 11:26:39;;;;;;;13.77;9.77;;;10.80;90.20;;;;;;5037800;28;20113;-60
2022/03/01 11:29:11;;;;;;;13.80;9.75;;;10.70;93.50;;;;;;5036339;28;20056;-60
2022/03/01 11:31:37;;;;;;;13.13;9.70;;;10.80;93.10;;;;;;5035667;28;20421;-60
2022/03/01 11:34:11;;;;;;;15.93;11.00;;;10.80;93.60;;;;;;5033758;28;20082;-60
2022/03/01 11:36:36;;;;;;;16.33;11.73;;;10.90;91.60;;;;;;5034790;28;20052;-60
2022/03/01 11:39:14;;;;;;;14.80;10.68;;;10.90;93.70;;;;;;5035287;28;20041;-60
2022/03/01 11:41:51;;;;;;;12.10;9.85;;;10.90;91.90;;;;;;5044217;28;20045;-60
2022/03/01 11:44:23;;;;;;;15.57;10.48;;;10.90;90.10;;;;;;5017109;28;20143;-60
2022/03/01 11:46:50;;;;;;;19.27;11.68;;;10.90;92.00;;;;;;5034951;28;20037;-60
2022/03/01 11:49:20;;;;;;;15.40;10.15;;;10.90;92.90;;;;;;5045694;28;20094;-61
2022/03/01 11:51:55;;;;;;;11.68;9.90;;;10.90;94.00;;;;;;5035580;28;20041;-60
2022/03/01 11:54:28;;;;;;;16.20;11.15;;;10.80;93.50;;;;;;5031790;28;20139;-60
2022/03/01 11:56:56;;;;;;;15.25;10.68;;;10.80;92.50;;;;;;5041574;28;20088;-60
2022/03/01 11:59:23;;;;;;;16.13;10.48;;;10.80;92.70;;;;;;5033932;28;20056;-60
2022/03/01 12:01:51;;;;;;;14.35;10.48;;;10.80;93.70;;;;;;5036008;28;20040;-60
2022/03/01 12:04:27;;;;;;;13.90;10.90;;;10.80;91.10;;;;;;5036501;28;20047;-60
2022/03/01 12:06:55;;;;;;;12.85;9.20;;;10.80;92.50;;;;;;5032723;28;20774;-60
2022/03/01 12:09:26;;;;;;;15.15;11.95;;;10.90;94.50;;;;;;5038030;28;20036;-60
2022/03/01 12:12:07;;;;;;;12.95;9.93;;;10.90;93.60;;;;;;5025238;28;20060;-60
2022/03/01 12:14:34;;;;;;;14.50;9.45;;;10.90;93.00;;;;;;5038197;28;20053;-60
2022/03/01 12:17:15;;;;;;;17.75;9.88;;;10.90;94.30;;;;;;5045164;28;20107;-60
2022/03/01 12:19:41;;;;;;;14.10;9.82;;;10.50;93.70;;;;;;5039740;28;20040;-60
2022/03/01 12:22:07;;;;;;;16.42;11.40;;;11.00;94.50;;;;;;5039771;28;20083;-60
2022/03/01 12:24:33;;;;;;;14.48;10.07;;;10.90;93.90;;;;;;5038853;28;20708;-60
2022/03/01 12:27:02;;;;;;;14.68;10.25;;;10.90;94.10;;;;;;5038476;28;20198;-60
2022/03/01 12:29:33;;;;;;;12.73;8.93;;;10.90;95.00;;;;;;5038073;28;20091;-60
2022/03/01 12:32:00;;;;;;;18.15;11.27;;;10.80;95.60;;;;;;5039004;28;20678;-60
2022/03/01 12:34:28;;;;;;;14.90;10.27;;;10.80;95.40;;;;;;5020448;28;20074;-60
2022/03/01 12:37:06;;;;;;;12.95;9.02;;;10.90;95.60;;;;;;5040975;28;20894;-60
2022/03/01 12:39:32;;;;;;;17.77;10.85;;;11.00;95.40;;;;;;5044553;28;20864;-60
2022/03/01 12:41:58;;;;;;;16.10;11.20;;;10.90;95.50;;;;;;5047458;28;20167;-60